Buoy 46563

sailwx.info

Track history (hours):
 
Tides and Currents Weather Stations Pressure Air Temp Water Temp Dewpoint Dewpoint Depression Visibility Wind Speed Wind Dir Waves Ship Positions

Drifting buoy 46563

Last reported at 2014-Sep-20 02:00 UTC. Time now 2014-Sep-20 06:01 UTC.
Position N 25°16' W 125°26'.

Water temperature 24.2 ° C

Date/timePositionNaut miles runAvg speedWind from/ knotsBaromVisibWave heightAir tempDewpointWater temp
2014-Sep-20 02:00N 25°16' W 125°26'0 0.3 24.2
2014-Sep-20 01:00N 25°16' W 125°26'0 0.3 24.3
2014-Sep-20 00:00N 25°16' W 125°27'0 0.3 25.9
2014-Sep-19 23:00N 25°16' W 125°27'1 0.7 26.1
2014-Sep-19 22:00N 25°16' W 125°28'1 1.0 26.3
2014-Sep-19 21:00N 25°16' W 125°29'0 0.0 26.1
2014-Sep-19 18:00N 25°16' W 125°29'0 0.0 24.2
2014-Sep-19 17:00N 25°16' W 125°29'2 0.4 23.9
2014-Sep-19 13:00N 25°15' W 125°30'0 0.2 23.8
2014-Sep-19 12:00N 25°15' W 125°30'0 0.1 23.8
2014-Sep-19 11:00N 25°15' W 125°30'0 0.2 23.8
2014-Sep-19 09:00N 25°14' W 125°30'0 0.1 23.8
2014-Sep-19 05:00N 25°14' W 125°30'0 0.1 23.9
2014-Sep-19 04:00N 25°14' W 125°30'0 0.0 23.9
2014-Sep-19 03:00N 25°14' W 125°30'0 0.1 24.0
2014-Sep-19 01:00N 25°15' W 125°30'1 0.6 24.2
2014-Sep-19 00:00N 25°15' W 125°31'0 0.2 24.2
2014-Sep-18 23:00N 25°15' W 125°31'1 0.4 24.4
2014-Sep-18 21:00N 25°15' W 125°32'1 0.4 24.4
2014-Sep-18 18:00N 25°15' W 125°33'1 0.4 23.7
2014-Sep-18 16:00N 25°14' W 125°33'0 0.1 23.6
2014-Sep-18 13:00N 25°14' W 125°33'0 0.2 23.6
2014-Sep-18 12:00N 25°13' W 125°33'0 0.2 23.6
2014-Sep-18 10:00N 25°13' W 125°33'0 0.4 23.6
2014-Sep-18 09:00N 25°13' W 125°33'0 0.2 23.6
2014-Sep-18 06:00N 25°13' W 125°33'1 0.2 23.6
2014-Sep-18 02:00N 25°14' W 125°33'0 0.2 23.8
2014-Sep-18 01:00N 25°14' W 125°33'0 0.4 23.9
2014-Sep-18 00:00N 25°14' W 125°34'1 0.3 24.0
2014-Sep-17 21:00N 25°14' W 125°35'1 0.7 23.9
2014-Sep-17 20:00N 25°15' W 125°35'1 0.4 23.8
2014-Sep-17 18:00N 25°14' W 125°36'1 1.1 23.6
2014-Sep-17 17:00N 25°13' W 125°37'0 0.0 23.5
2014-Sep-17 14:00N 25°13' W 125°37'0 0.0 23.4
2014-Sep-17 13:00N 25°13' W 125°37'1 0.2 23.4
2014-Sep-17 10:00N 25°13' W 125°36'1 0.1 23.5
2014-Sep-17 06:00N 25°13' W 125°36'1 0.3 23.5
2014-Sep-17 03:00N 25°13' W 125°37'1 0.2 23.6
2014-Sep-16 23:00N 25°14' W 125°37'0 0.0 23.9
2014-Sep-16 21:00N 25°14' W 125°37'1 0.3 23.8
2014-Sep-16 19:00N 25°14' W 125°37'1 0.4 23.6
2014-Sep-16 17:00N 25°14' W 125°38'1 0.4 23.4
2014-Sep-16 14:00N 25°14' W 125°39'0 0.0 23.4
2014-Sep-16 13:00N 25°14' W 125°39'0 0.0 23.4
2014-Sep-16 12:00N 25°14' W 125°39'0 0.0 23.4
2014-Sep-16 09:00N 25°14' W 125°39'1 0.4 23.4
2014-Sep-16 06:00N 25°13' W 125°39'0 0.2 23.5
2014-Sep-16 05:00N 25°13' W 125°39'0 0.2 23.5
2014-Sep-16 03:00N 25°13' W 125°38'0 0.3 23.5
2014-Sep-16 02:00N 25°13' W 125°38'1 0.5 23.5
2014-Sep-16 00:00N 25°14' W 125°38'0 0.0 23.7
2014-Sep-15 23:00N 25°14' W 125°38'1 0.1 23.7
2014-Sep-15 14:00N 25°14' W 125°39'0 0.1 23.3
2014-Sep-15 12:00N 25°14' W 125°38'0 0.2 23.3
2014-Sep-15 10:00N 25°14' W 125°39'0 0.1 23.3
2014-Sep-15 06:00N 25°13' W 125°39'1 0.5 23.4
2014-Sep-15 05:00N 25°13' W 125°38'0 0.1 23.4
2014-Sep-15 00:00N 25°13' W 125°38'1 1.4 23.5
2014-Sep-14 23:00N 25°13' W 125°37'0 0.0 23.5
2014-Sep-14 22:00N 25°13' W 125°37'0 0.0 23.5
2014-Sep-14 21:00N 25°13' W 125°37'1 1.0 23.4
2014-Sep-14 20:00N 25°13' W 125°36'0 0.4 23.4
2014-Sep-14 19:00N 25°13' W 125°35'0 0.0 23.3
2014-Sep-14 18:00N 25°13' W 125°35'1 0.1 23.3
2014-Sep-14 13:00N 25°12' W 125°36'1 0.2 23.3
2014-Sep-14 10:00N 25°12' W 125°35'0 0.4 23.3
2014-Sep-14 09:00N 25°12' W 125°36'0 0.1 23.4
2014-Sep-14 05:00N 25°12' W 125°36'0 0.3 23.4
2014-Sep-14 04:00N 25°12' W 125°36'0 0.1 23.4
2014-Sep-14 02:00N 25°12' W 125°36'1 1.2 23.5
2014-Sep-14 01:00N 25°12' W 125°35'0 0.1 23.5
2014-Sep-13 22:00N 25°11' W 125°35'0 0.4 23.5
2014-Sep-13 21:00N 25°12' W 125°35'1 0.2 23.5
2014-Sep-13 18:00N 25°11' W 125°35'2 1.5 23.3
2014-Sep-13 17:00N 25°11' W 125°34'0 0.0 23.3
2014-Sep-13 14:00N 25°11' W 125°34'0 0.3 23.3
2014-Sep-13 13:00N 25°11' W 125°34'1 0.3 23.3
2014-Sep-13 11:00N 25°12' W 125°34'1 0.4 23.3
2014-Sep-13 09:00N 25°12' W 125°34'0 0.1 23.3
2014-Sep-13 05:00N 25°12' W 125°34'0 0.2 23.3
2014-Sep-13 04:00N 25°13' W 125°35'0 0.4 23.3
2014-Sep-13 03:00N 25°12' W 125°35'0 0.2 23.3
2014-Sep-13 01:00N 25°12' W 125°35'0 0.4 23.3
2014-Sep-13 00:00N 25°12' W 125°35'0 0.4 23.3
2014-Sep-12 23:00N 25°11' W 125°35'0 0.1 23.3
2014-Sep-12 22:00N 25°11' W 125°35'1 0.2 23.3
2014-Sep-12 18:00N 25°11' W 125°35'1 0.6 23.2
2014-Sep-12 17:00N 25°10' W 125°35'1 0.2 23.2
2014-Sep-12 14:00N 25°10' W 125°34'1 0.7 23.2
2014-Sep-12 13:00N 25°10' W 125°33'0 0.0 23.2
2014-Sep-12 12:00N 25°10' W 125°33'0 0.5 23.2
2014-Sep-12 11:00N 25°10' W 125°33'0 0.0 23.2
2014-Sep-12 09:00N 25°10' W 125°33'1 0.2 23.2
2014-Sep-12 06:00N 25°10' W 125°32'0 0.3 23.2
2014-Sep-12 05:00N 25°10' W 125°33'1 0.2 23.2
2014-Sep-12 01:00N 25°11' W 125°33'0 0.1 23.2
2014-Sep-12 00:00N 25°11' W 125°33'0 0.3 23.2
2014-Sep-11 23:00N 25°11' W 125°34'0 0.1 23.2
2014-Sep-11 22:00N 25°11' W 125°33'1 0.2 23.2
2014-Sep-11 19:00N 25°10' W 125°34'0 0.1 23.2
2014-Sep-11 18:00N 25°10' W 125°34'1 0.5 23.2
2014-Sep-11 17:00N 25°10' W 125°35'1 0.4 23.2
2014-Sep-11 15:00N 25°09' W 125°35'0 0.4 23.1
2014-Sep-11 14:00N 25°09' W 125°35'1 0.2 23.2
2014-Sep-11 11:00N 25°10' W 125°34'0 0.0 23.1
2014-Sep-11 09:00N 25°10' W 125°34'1 0.2 23.2
2014-Sep-11 06:00N 25°09' W 125°34'0 0.3 23.2
2014-Sep-11 05:00N 25°09' W 125°34'0 0.1 23.2
2014-Sep-11 02:00N 25°09' W 125°34'0 0.3 23.2
2014-Sep-11 01:00N 25°09' W 125°34'1 0.6 23.2
2014-Sep-11 00:00N 25°10' W 125°35'0 0.1 23.2
2014-Sep-10 22:45N 25°10' W 125°34'0 0.3 23.2
2014-Sep-10 22:00N 25°10' W 125°35'1 0.7 23.2
2014-Sep-10 21:00N 25°10' W 125°34'1 0.4 23.1
2014-Sep-10 18:00N 25°10' W 125°35'0 0.2 23.1
2014-Sep-10 15:00N 25°10' W 125°36'0 0.5 23.1
2014-Sep-10 14:00N 25°10' W 125°36'0 0.1 23.1
2014-Sep-10 11:00N 25°10' W 125°36'0 0.0 23.1
2014-Sep-10 09:00N 25°10' W 125°36'1 0.7 23.1
2014-Sep-10 08:00N 25°09' W 125°36'1 0.2 23.1
2014-Sep-10 03:00N 25°09' W 125°35'   23.1
Track history (hours):
 
Tides and Currents Weather Stations Pressure Air Temp Water Temp Dewpoint Dewpoint Depression Visibility Wind Speed Wind Dir Waves Ship Positions

Drifting buoy 46563

Last reported at 2014-Sep-20 02:00 UTC. Time now 2014-Sep-20 06:01 UTC.
Position N 25°16' W 125°26'.

Water temperature 24.2 ° C

Date/timePositionNaut miles runAvg speedWind from/ knotsBaromVisibWave heightAir tempDewpointWater temp
2014-Sep-20 02:00N 25°16' W 125°26'0 0.3 24.2
2014-Sep-20 01:00N 25°16' W 125°26'0 0.3 24.3
2014-Sep-20 00:00N 25°16' W 125°27'0 0.3 25.9
2014-Sep-19 23:00N 25°16' W 125°27'1 0.7 26.1
2014-Sep-19 22:00N 25°16' W 125°28'1 1.0 26.3
2014-Sep-19 21:00N 25°16' W 125°29'0 0.0 26.1
2014-Sep-19 18:00N 25°16' W 125°29'0 0.0 24.2
2014-Sep-19 17:00N 25°16' W 125°29'2 0.4 23.9
2014-Sep-19 13:00N 25°15' W 125°30'0 0.2 23.8
2014-Sep-19 12:00N 25°15' W 125°30'0 0.1 23.8
2014-Sep-19 11:00N 25°15' W 125°30'0 0.2 23.8
2014-Sep-19 09:00N 25°14' W 125°30'0 0.1 23.8
2014-Sep-19 05:00N 25°14' W 125°30'0 0.1 23.9
2014-Sep-19 04:00N 25°14' W 125°30'0 0.0 23.9
2014-Sep-19 03:00N 25°14' W 125°30'0 0.1 24.0
2014-Sep-19 01:00N 25°15' W 125°30'1 0.6 24.2
2014-Sep-19 00:00N 25°15' W 125°31'0 0.2 24.2
2014-Sep-18 23:00N 25°15' W 125°31'1 0.4 24.4
2014-Sep-18 21:00N 25°15' W 125°32'1 0.4 24.4
2014-Sep-18 18:00N 25°15' W 125°33'1 0.4 23.7
2014-Sep-18 16:00N 25°14' W 125°33'0 0.1 23.6
2014-Sep-18 13:00N 25°14' W 125°33'0 0.2 23.6
2014-Sep-18 12:00N 25°13' W 125°33'0 0.2 23.6
2014-Sep-18 10:00N 25°13' W 125°33'0 0.4 23.6
2014-Sep-18 09:00N 25°13' W 125°33'0 0.2 23.6
2014-Sep-18 06:00N 25°13' W 125°33'1 0.2 23.6
2014-Sep-18 02:00N 25°14' W 125°33'0 0.2 23.8
2014-Sep-18 01:00N 25°14' W 125°33'0 0.4 23.9
2014-Sep-18 00:00N 25°14' W 125°34'1 0.3 24.0
2014-Sep-17 21:00N 25°14' W 125°35'1 0.7 23.9
2014-Sep-17 20:00N 25°15' W 125°35'1 0.4 23.8
2014-Sep-17 18:00N 25°14' W 125°36'1 1.1 23.6
2014-Sep-17 17:00N 25°13' W 125°37'0 0.0 23.5
2014-Sep-17 14:00N 25°13' W 125°37'0 0.0 23.4
2014-Sep-17 13:00N 25°13' W 125°37'1 0.2 23.4
2014-Sep-17 10:00N 25°13' W 125°36'1 0.1 23.5
2014-Sep-17 06:00N 25°13' W 125°36'1 0.3 23.5
2014-Sep-17 03:00N 25°13' W 125°37'1 0.2 23.6
2014-Sep-16 23:00N 25°14' W 125°37'0 0.0 23.9
2014-Sep-16 21:00N 25°14' W 125°37'1 0.3 23.8
2014-Sep-16 19:00N 25°14' W 125°37'1 0.4 23.6
2014-Sep-16 17:00N 25°14' W 125°38'1 0.4 23.4
2014-Sep-16 14:00N 25°14' W 125°39'0 0.0 23.4
2014-Sep-16 13:00N 25°14' W 125°39'0 0.0 23.4
2014-Sep-16 12:00N 25°14' W 125°39'0 0.0 23.4
2014-Sep-16 09:00N 25°14' W 125°39'1 0.4 23.4
2014-Sep-16 06:00N 25°13' W 125°39'0 0.2 23.5
2014-Sep-16 05:00N 25°13' W 125°39'0 0.2 23.5
2014-Sep-16 03:00N 25°13' W 125°38'0 0.3 23.5
2014-Sep-16 02:00N 25°13' W 125°38'1 0.5 23.5
2014-Sep-16 00:00N 25°14' W 125°38'0 0.0 23.7
2014-Sep-15 23:00N 25°14' W 125°38'1 0.1 23.7
2014-Sep-15 14:00N 25°14' W 125°39'0 0.1 23.3
2014-Sep-15 12:00N 25°14' W 125°38'0 0.2 23.3
2014-Sep-15 10:00N 25°14' W 125°39'0 0.1 23.3
2014-Sep-15 06:00N 25°13' W 125°39'1 0.5 23.4
2014-Sep-15 05:00N 25°13' W 125°38'0 0.1 23.4
2014-Sep-15 00:00N 25°13' W 125°38'1 1.4 23.5
2014-Sep-14 23:00N 25°13' W 125°37'0 0.0 23.5
2014-Sep-14 22:00N 25°13' W 125°37'0 0.0 23.5
2014-Sep-14 21:00N 25°13' W 125°37'1 1.0 23.4
2014-Sep-14 20:00N 25°13' W 125°36'0 0.4 23.4
2014-Sep-14 19:00N 25°13' W 125°35'0 0.0 23.3
2014-Sep-14 18:00N 25°13' W 125°35'1 0.1 23.3
2014-Sep-14 13:00N 25°12' W 125°36'1 0.2 23.3
2014-Sep-14 10:00N 25°12' W 125°35'0 0.4 23.3
2014-Sep-14 09:00N 25°12' W 125°36'0 0.1 23.4
2014-Sep-14 05:00N 25°12' W 125°36'0 0.3 23.4
2014-Sep-14 04:00N 25°12' W 125°36'0 0.1 23.4
2014-Sep-14 02:00N 25°12' W 125°36'1 1.2 23.5
2014-Sep-14 01:00N 25°12' W 125°35'0 0.1 23.5
2014-Sep-13 22:00N 25°11' W 125°35'0 0.4 23.5
2014-Sep-13 21:00N 25°12' W 125°35'1 0.2 23.5
2014-Sep-13 18:00N 25°11' W 125°35'2 1.5 23.3
2014-Sep-13 17:00N 25°11' W 125°34'0 0.0 23.3
2014-Sep-13 14:00N 25°11' W 125°34'0 0.3 23.3
2014-Sep-13 13:00N 25°11' W 125°34'1 0.3 23.3
2014-Sep-13 11:00N 25°12' W 125°34'1 0.4 23.3
2014-Sep-13 09:00N 25°12' W 125°34'0 0.1 23.3
2014-Sep-13 05:00N 25°12' W 125°34'0 0.2 23.3
2014-Sep-13 04:00N 25°13' W 125°35'0 0.4 23.3
2014-Sep-13 03:00N 25°12' W 125°35'0 0.2 23.3
2014-Sep-13 01:00N 25°12' W 125°35'0 0.4 23.3
2014-Sep-13 00:00N 25°12' W 125°35'0 0.4 23.3
2014-Sep-12 23:00N 25°11' W 125°35'0 0.1 23.3
2014-Sep-12 22:00N 25°11' W 125°35'1 0.2 23.3
2014-Sep-12 18:00N 25°11' W 125°35'1 0.6 23.2
2014-Sep-12 17:00N 25°10' W 125°35'1 0.2 23.2
2014-Sep-12 14:00N 25°10' W 125°34'1 0.7 23.2
2014-Sep-12 13:00N 25°10' W 125°33'0 0.0 23.2
2014-Sep-12 12:00N 25°10' W 125°33'0 0.5 23.2
2014-Sep-12 11:00N 25°10' W 125°33'0 0.0 23.2
2014-Sep-12 09:00N 25°10' W 125°33'1 0.2 23.2
2014-Sep-12 06:00N 25°10' W 125°32'0 0.3 23.2
2014-Sep-12 05:00N 25°10' W 125°33'1 0.2 23.2
2014-Sep-12 01:00N 25°11' W 125°33'0 0.1 23.2
2014-Sep-12 00:00N 25°11' W 125°33'0 0.3 23.2
2014-Sep-11 23:00N 25°11' W 125°34'0 0.1 23.2
2014-Sep-11 22:00N 25°11' W 125°33'1 0.2 23.2
2014-Sep-11 19:00N 25°10' W 125°34'0 0.1 23.2
2014-Sep-11 18:00N 25°10' W 125°34'1 0.5 23.2
2014-Sep-11 17:00N 25°10' W 125°35'1 0.4 23.2
2014-Sep-11 15:00N 25°09' W 125°35'0 0.4 23.1
2014-Sep-11 14:00N 25°09' W 125°35'1 0.2 23.2
2014-Sep-11 11:00N 25°10' W 125°34'0 0.0 23.1
2014-Sep-11 09:00N 25°10' W 125°34'1 0.2 23.2
2014-Sep-11 06:00N 25°09' W 125°34'0 0.3 23.2
2014-Sep-11 05:00N 25°09' W 125°34'0 0.1 23.2
2014-Sep-11 02:00N 25°09' W 125°34'0 0.3 23.2
2014-Sep-11 01:00N 25°09' W 125°34'1 0.6 23.2
2014-Sep-11 00:00N 25°10' W 125°35'0 0.1 23.2
2014-Sep-10 22:45N 25°10' W 125°34'0 0.3 23.2
2014-Sep-10 22:00N 25°10' W 125°35'1 0.7 23.2
2014-Sep-10 21:00N 25°10' W 125°34'1 0.4 23.1
2014-Sep-10 18:00N 25°10' W 125°35'0 0.2 23.1
2014-Sep-10 15:00N 25°10' W 125°36'0 0.5 23.1
2014-Sep-10 14:00N 25°10' W 125°36'0 0.1 23.1
2014-Sep-10 11:00N 25°10' W 125°36'0 0.0 23.1
2014-Sep-10 09:00N 25°10' W 125°36'1 0.7 23.1
2014-Sep-10 08:00N 25°09' W 125°36'1 0.2 23.1
2014-Sep-10 03:00N 25°09' W 125°35'   23.1

Dump ship's entire track history